Data for 03/09/2016

Time Sea-Level Adjusted Pressure Absolute Pressure Temperature Relative Humidity Dew Point   
(mb) (inHg) (mb) (inHg) (C) (F) (%) (C) (F)
00:05 1013 29.91 842 24.86 -3.6 25.5 85 -5.8 21.5
00:10 1013 29.91 842 24.86 -3.5 25.7 84 -5.8 21.5
00:15 1013 29.91 842 24.86 -3.5 25.6 83 -6.1 21.1
00:20 1013 29.91 842 24.86 -3.6 25.5 82 -6.3 20.7
00:25 1013 29.91 842 24.86 -3.6 25.5 82 -6.3 20.6
00:30 1013 29.91 842 24.86 -3.5 25.6 82 -6.2 20.8
00:35 1013 29.91 842 24.86 -3.6 25.5 81 -6.4 20.6
00:40 1013 29.91 842 24.86 -3.8 25.2 81 -6.5 20.3
00:45 1013 29.91 842 24.86 -3.7 25.3 81 -6.5 20.3
00:50 1013 29.91 842 24.86 -3.6 25.5 81 -6.4 20.5
00:55 1013 29.91 842 24.86 -3.6 25.6 81 -6.3 20.6
01:00 1013 29.91 842 24.86 -3.5 25.7 81 -6.2 20.8
01:05 1013 29.91 842 24.86 -3.5 25.8 81 -6.3 20.7
01:10 1013 29.91 842 24.86 -3.4 25.8 81 -6.3 20.7
01:15 1013 29.91 842 24.86 -3.3 26 80 -6.3 20.6
01:20 1013 29.91 842 24.86 -3.2 26.2 79 -6.3 20.6
01:25 1013 29.91 842 24.86 -3.1 26.5 79 -6.2 20.8
01:30 1013 29.91 842 24.86 -3.2 26.3 79 -6.3 20.6
01:35 1013 29.91 842 24.86 -3.1 26.4 78 -6.4 20.4
01:40 1013 29.91 842 24.86 -3.2 26.3 77 -6.6 20.1
01:45 1013 29.91 842 24.86 -3.1 26.4 77 -6.6 20.1
01:50 1013 29.91 842 24.86 -3 26.5 75 -6.8 19.7
01:55 1013 29.91 842 24.86 -3.1 26.5 75 -6.8 19.7
02:00 1013 29.91 842 24.86 -3 26.5 76 -6.7 19.9
02:05 1013 29.91 842 24.86 -3.2 26.2 77 -6.7 19.9
02:10 1013 29.91 842 24.86 -3.3 26.1 75 -7.1 19.2
02:15 1013 29.91 842 24.86 -3.2 26.3 75 -7 19.5
02:20 1013 29.91 842 24.86 -3.1 26.4 74 -7.1 19.2
02:25 1013 29.91 842 24.86 -3.2 26.2 76 -6.9 19.6
02:30 1013 29.91 842 24.86 -3.1 26.4 74 -7.1 19.2
02:35 1013 29.91 842 24.86 -2.9 26.8 74 -6.9 19.6
02:40 1013 29.91 842 24.86 -2.9 26.8 73 -7.1 19.3
02:45 1013 29.91 842 24.86 -2.9 26.7 75 -6.7 19.9
02:50 1013 29.91 842 24.86 -3.1 26.5 77 -6.6 20.1
02:55 1013 29.91 842 24.86 -3.1 26.4 77 -6.5 20.2
03:00 1013 29.91 842 24.86 -3.2 26.3 77 -6.6 20.1
03:05 1013 29.91 842 24.86 -3.1 26.4 77 -6.7 20
03:10 1013 29.91 842 24.86 -3.1 26.4 77 -6.5 20.2
03:15 1013 29.91 842 24.86 -3.3 26.1 78 -6.5 20.3
03:20 1013 29.91 842 24.86 -3.4 25.8 79 -6.6 20.1
03:25 1013 29.91 842 24.86 -3.6 25.5 80 -6.6 20.2
03:30 1013 29.91 842 24.86 -3.7 25.4 79 -6.8 19.8
03:35 1013 29.91 842 24.86 -3.6 25.5 79 -6.7 19.9
03:40 1013 29.91 842 24.86 -3.7 25.4 79 -6.8 19.8
03:45 1013 29.91 842 24.86 -3.6 25.5 79 -6.7 19.9
03:50 1013 29.91 842 24.86 -3.6 25.5 80 -6.7 20
03:55 1013 29.91 842 24.86 -3.6 25.5 79 -6.7 19.9
04:00 1013 29.91 842 24.86 -3.7 25.3 80 -6.7 20
04:05 1013 29.91 842 24.86 -3.8 25.2 79 -6.9 19.6
04:10 1013 29.91 842 24.86 -3.4 25.9 77 -6.8 19.7
04:15 1013 29.91 842 24.86 -3.2 26.2 77 -6.6 20.1
04:20 1013 29.91 842 24.86 -3.3 26.2 78 -6.5 20.2
04:25 1013 29.91 842 24.86 -3.2 26.2 78 -6.5 20.4
04:30 1013 29.91 842 24.86 -3.3 26 79 -6.5 20.3
04:35 1013 29.91 842 24.86 -3.3 26 79 -6.5 20.4
04:40 1013 29.91 842 24.86 -3.3 26 79 -6.5 20.3
04:45 1013 29.91 842 24.86 -3.5 25.6 79 -6.6 20.1
04:50 1013 29.91 842 24.86 -3.5 25.6 79 -6.7 20
04:55 1013 29.91 842 24.86 -3.5 25.6 80 -6.6 20.2
05:00 1013 29.91 842 24.86 -3.7 25.4 79 -6.9 19.7
05:05 1013 29.91 842 24.86 -3.6 25.4 79 -6.8 19.7
05:10 1013 29.91 842 24.86 -3.7 25.4 79 -6.8 19.8
05:15 1013 29.91 842 24.86 -3.6 25.5 79 -6.8 19.7
05:20 1013 29.91 842 24.86 -3.7 25.4 78 -6.9 19.6
05:25 1013 29.91 842 24.86 -3.6 25.5 78 -6.8 19.7
05:30 1013 29.91 842 24.86 -3.5 25.8 78 -6.8 19.7
05:35 1013 29.91 842 24.86 -3.3 26.1 77 -6.7 19.9
05:40 1013 29.91 843 24.89 -3.2 26.3 77 -6.7 20
05:45 1013 29.91 843 24.89 -3.3 26.2 77 -6.7 19.9
05:50 1013 29.91 843 24.89 -3.2 26.2 76 -6.8 19.7
05:55 1014 29.94 843 24.89 -3.1 26.4 76 -6.8 19.8
06:00 1014 29.94 843 24.89 -3 26.7 76 -6.7 20
06:05 1014 29.94 843 24.89 -3 26.6 77 -6.4 20.4
06:10 1014 29.94 843 24.89 -3.2 26.2 80 -6.2 20.8
06:15 1014 29.94 843 24.89 -3.4 25.9 81 -6.2 20.9
06:20 1014 29.94 843 24.89 -3.4 25.8 82 -6.1 21
06:25 1014 29.94 843 24.89 -3.3 26.1 80 -6.3 20.7
06:30 1014 29.94 843 24.89 -3.1 26.3 79 -6.3 20.7
06:35 1014 29.94 843 24.89 -3.1 26.3 79 -6.2 20.8
06:40 1014 29.94 843 24.89 -3.2 26.3 79 -6.3 20.7
06:45 1014 29.94 843 24.89 -3.1 26.5 79 -6.3 20.7
06:50 1014 29.94 843 24.89 -3 26.5 79 -6.2 20.8
06:55 1014 29.94 843 24.89 -3 26.6 79 -6.1 21
07:00 1014 29.94 843 24.89 -3 26.5 79 -6.2 20.8
07:05 1014 29.94 843 24.89 -3 26.6 79 -6.2 20.9
07:10 1014 29.94 843 24.89 -2.9 26.8 80 -6 21.3
07:15 1014 29.94 843 24.89 -3 26.6 80 -5.9 21.3
07:20 1014 29.94 843 24.89 -3 26.6 79 -6.1 21.1
07:25 1014 29.94 843 24.89 -3 26.5 80 -6 21.2
07:30 1014 29.94 843 24.89 -3.1 26.4 80 -6.1 21.1
07:35 1014 29.94 843 24.89 -3.1 26.4 81 -6 21.2
07:40 1014 29.94 843 24.89 -3.2 26.3 81 -6 21.3
07:45 1014 29.94 843 24.89 -3.1 26.3 81 -5.9 21.3
07:50 1014 29.94 843 24.89 -3.1 26.4 81 -5.9 21.4
07:55 1014 29.94 844 24.92 -3 26.6 80 -6 21.1
08:00 1014 29.94 844 24.92 -2.8 26.9 80 -5.9 21.4
08:05 1014 29.94 844 24.92 -2.7 27.1 79 -5.9 21.3
08:10 1015 29.97 844 24.92 -2.7 27.1 79 -5.8 21.5
08:15 1015 29.97 844 24.92 -2.8 27 80 -5.8 21.6
08:20 1015 29.97 844 24.92 -2.8 26.9 80 -5.8 21.6
08:25 1015 29.97 844 24.92 -2.8 26.9 81 -5.7 21.7
08:30 1015 29.97 844 24.92 -2.8 27 80 -5.7 21.7
08:35 1015 29.97 844 24.92 -2.7 27.2 79 -5.8 21.6
08:40 1015 29.97 844 24.92 -2.6 27.3 80 -5.7 21.8
08:45 1015 29.97 844 24.92 -2.5 27.5 79 -5.6 21.9
08:50 1015 29.97 844 24.92 -2.4 27.7 79 -5.6 21.9
08:55 1015 29.97 844 24.92 -2.3 27.8 79 -5.5 22.1
09:00 1015 29.97 844 24.92 -2.2 28.1 79 -5.4 22.3
09:05 1015 29.97 844 24.92 -2 28.4 78 -5.3 22.4
09:10 1015 29.97 845 24.95 -1.8 28.8 77 -5.2 22.6
09:15 1015 29.97 845 24.95 -1.7 28.9 77 -5.2 22.6
09:20 1015 29.97 845 24.95 -1.6 29 78 -5 22.9
09:25 1015 29.97 845 24.95 -1.4 29.6 75 -5.2 22.7
09:30 1015 29.97 845 24.95 -1 30.1 75 -4.9 23.2
09:35 1015 29.97 845 24.95 -0.7 30.8 74 -4.8 23.4
09:40 1015 29.97 845 24.95 -0.7 30.8 73 -5 23
09:45 1015 29.97 845 24.95 -0.7 30.7 74 -4.7 23.5
09:50 1015 29.97 845 24.95 -0.7 30.7 74 -4.8 23.3
09:55 1016 30 845 24.95 -0.6 30.9 73 -4.8 23.3
10:00 1016 30 845 24.95 -0.1 31.8 72 -4.5 23.9
10:05 1016 30 845 24.95 0.4 32.7 69 -4.6 23.7
10:10 1016 30 845 24.95 0.4 32.7 72 -4.2 24.5
10:15 1016 30 845 24.95 1.4 34.5 67 -4.2 24.5
10:20 1016 30 845 24.95 1.6 34.8 68 -3.8 25.2
10:25 1016 30 845 24.95 1.4 34.6 64 -4.7 23.6
10:30 1015 29.97 845 24.95 1.6 34.8 66 -4.1 24.6
10:35 1015 29.97 845 24.95 1.8 35.3 67 -3.7 25.3
10:40 1016 30 845 24.95 2.2 35.9 62 -4.3 24.2
10:45 1016 30 845 24.95 2.2 35.9 62 -4.5 24
10:50 1016 30 845 24.95 2.1 35.7 61 -4.6 23.7
10:55 1016 30 845 24.95 2.2 35.9 62 -4.3 24.3
11:00 1016 30 845 24.95 2.6 36.6 57 -5.1 22.8
11:05 1016 30 845 24.95 3 37.5 56 -4.9 23.1
11:10 1016 30 845 24.95 3.3 38 52 -5.6 22
11:15 1016 30 845 24.95 3.5 38.3 55 -4.7 23.6
11:20 1016 30 845 24.95 4.1 39.4 50 -5.4 22.4
11:25 1016 30 845 24.95 3.5 38.4 54 -4.9 23.1
11:30 1016 30 845 24.95 3.3 37.9 53 -5.4 22.2
11:35 1016 30 845 24.95 3.9 39 51 -5.3 22.4
11:40 1016 30 845 24.95 4.1 39.4 54 -4.5 24
11:45 1016 30 845 24.95 4.4 40 51 -4.8 23.3
11:50 1016 30 845 24.95 4.5 40.1 48 -5.5 22.1
11:55 1016 30 845 24.95 4.9 40.8 52 -4.3 24.3
12:00 1016 30 845 24.95 5.1 41.2 47 -5.4 22.3
12:05 1016 30 845 24.95 4.4 40 51 -4.8 23.4
12:10 1016 30 845 24.95 4.6 40.3 51 -4.6 23.8
12:15 1016 30 845 24.95 4.6 40.3 51 -4.8 23.4
12:20 1016 30 845 24.95 4.8 40.7 51 -4.3 24.2
12:25 1016 30 845 24.95 4.7 40.4 50 -4.8 23.3
12:30 1016 30 845 24.95 4.9 40.9 51 -4.5 23.9
12:35 1016 30 845 24.95 5.3 41.5 48 -4.9 23.2
12:40 1016 30 845 24.95 5.7 42.2 46 -5.1 22.9
12:45 1016 30 845 24.95 6.1 43 44 -5.3 22.4
12:50 1016 30 845 24.95 6.5 43.7 43 -5.1 22.8
12:55 1016 30 845 24.95 6.6 43.9 42 -5.5 22
13:00 1016 30 845 24.95 6.2 43.2 42 -5.7 21.8
13:05 1016 30 845 24.95 6.6 44 41 -5.6 21.8
13:10 1016 30 845 24.95 6.3 43.4 41 -5.8 21.5
13:15 1016 30 845 24.95 6.5 43.7 41 -5.8 21.5
13:20 1016 30 845 24.95 6.4 43.5 42 -5.6 22
13:25 1016 30 845 24.95 6.3 43.3 42 -5.6 21.8
13:30 1016 30 845 24.95 6.2 43.2 40 -6.3 20.7
13:35 1016 30 845 24.95 6.1 42.9 40 -6.4 20.5
13:40 1016 30 845 24.95 6.1 42.9 39 -6.9 19.6
13:45 1016 30 845 24.95 5.9 42.6 40 -6.6 20.1
13:50 1016 30 845 24.95 6.1 43 41 -6.3 20.7
13:55 1016 30 845 24.95 6.1 43 40 -6.5 20.3
14:00 1016 30 845 24.95 5.8 42.4 40 -6.9 19.6
14:05 1016 30 845 24.95 5.7 42.2 41 -6.7 19.9
14:10 1016 30 845 24.95 6.3 43.4 40 -6.4 20.4
14:15 1016 30 845 24.95 6.9 44.5 37 -6.7 19.9
14:20 1016 30 845 24.95 6.3 43.4 43 -5.2 22.6
14:25 1016 30 845 24.95 6.2 43.1 45 -4.9 23.2
14:30 1016 30 845 24.95 5.8 42.5 48 -4.3 24.3
14:35 1016 30 845 24.95 5.2 41.4 49 -4.7 23.6
14:40 1016 30 845 24.95 4.9 40.7 51 -4.5 23.9
14:45 1016 30 845 24.95 4.8 40.7 54 -3.8 25.2
14:50 1016 30 845 24.95 5.2 41.4 52 -3.7 25.3
14:55 1016 30 845 24.95 5.1 41.2 52 -4 24.9
15:00 1016 30 845 24.95 4.2 39.5 56 -3.7 25.3
15:05 1016 30 845 24.95 3.8 38.9 56 -4.2 24.4
15:10 1016 30 845 24.95 4.5 40.2 56 -3.6 25.6
15:15 1016 30 845 24.95 4.6 40.3 54 -3.9 25
15:20 1016 30 845 24.95 5.1 41.1 54 -3.5 25.8
15:25 1016 30 845 24.95 5.1 41.2 52 -3.9 25
15:30 1016 30 845 24.95 5 41 51 -4.4 24.1
15:35 1016 30 845 24.95 5.3 41.5 50 -4.3 24.2
15:40 1016 30 845 24.95 5.5 41.9 48 -4.7 23.5
15:45 1016 30 845 24.95 5.8 42.4 47 -4.5 23.8
15:50 1016 30 845 24.95 5.8 42.5 47 -4.6 23.7
15:55 1016 30 845 24.95 5.7 42.3 47 -4.8 23.3
16:00 1016 30 845 24.95 5.6 42 48 -4.5 23.9
16:05 1016 30 845 24.95 5.6 42.1 47 -4.7 23.5
16:10 1016 30 845 24.95 5.8 42.4 46 -5 23.1
16:15 1016 30 845 24.95 5.8 42.4 47 -4.7 23.6
16:20 1016 30 845 24.95 5.2 41.3 47 -5.3 22.5
16:25 1016 30 845 24.95 5.3 41.5 46 -5.5 22.2
16:30 1016 30 845 24.95 5.7 42.3 44 -5.6 22
16:35 1016 30 845 24.95 5.8 42.5 43 -5.8 21.5
16:40 1016 30 845 24.95 5.8 42.4 44 -5.5 22.1
16:45 1016 30 845 24.95 6.3 43.3 39 -6.5 20.3
16:50 1016 30 845 24.95 6.8 44.2 39 -6.1 21
16:55 1016 30 845 24.95 6.9 44.5 38 -6.4 20.5
17:00 1016 30 845 24.95 6.5 43.8 39 -6.5 20.3
17:05 1016 30 845 24.95 6.3 43.4 33 -8.7 16.4
17:10 1016 30 845 24.95 6.6 44 31 -9.4 15.1
17:15 1016 30 845 24.95 6.6 43.8 31 -9.4 15.1
17:20 1016 30 845 24.95 6.8 44.2 29 -9.8 14.3
17:25 1016 30 845 24.95 7 44.7 30 -9.3 15.2
17:30 1016 30 845 24.95 6.8 44.3 30 -9.4 15.1
17:35 1016 30 845 24.95 6.6 43.9 31 -9.5 14.9
17:40 1016 30 845 24.95 6.5 43.7 31 -9.3 15.2
17:45 1016 30 845 24.95 6.7 44 32 -9 15.7
17:50 1016 30 845 24.95 7 44.5 31 -9 15.7
17:55 1016 30 845 24.95 6.7 44.1 30 -9.5 14.9
18:00 1015 29.97 845 24.95 7 44.6 29 -9.7 14.6
18:05 1015 29.97 845 24.95 7.3 45.2 29 -9.4 15.1
18:10 1015 29.97 844 24.92 7.3 45.2 29 -9.4 15
18:15 1015 29.97 844 24.92 7.1 44.8 30 -9.2 15.5
18:20 1015 29.97 844 24.92 6.7 44.1 30 -9.9 14.3
18:25 1015 29.97 844 24.92 6.5 43.8 31 -9.6 14.8
18:30 1015 29.97 844 24.92 6.6 43.8 30 -9.7 14.5
18:35 1015 29.97 844 24.92 6.6 43.9 31 -9.5 14.8
18:40 1015 29.97 844 24.92 6.7 44.1 31 -9.4 15.1
18:45 1015 29.97 844 24.92 6.6 44 30 -9.8 14.4
18:50 1015 29.97 844 24.92 6.3 43.4 31 -9.8 14.4
18:55 1015 29.97 844 24.92 6.2 43.1 31 -9.7 14.5
19:00 1015 29.97 844 24.92 6.2 43.1 30 -10.2 13.6
19:05 1015 29.97 844 24.92 6.1 42.9 31 -9.7 14.5
19:10 1015 29.97 845 24.95 5.8 42.4 32 -9.8 14.4
19:15 1015 29.97 845 24.95 5.6 42 32 -9.8 14.4
19:20 1015 29.97 845 24.95 5.4 41.7 33 -9.5 15
19:25 1015 29.97 845 24.95 5.1 41.3 35 -9.3 15.3
19:30 1015 29.97 845 24.95 4.8 40.7 39 -7.9 17.8
19:35 1016 30 845 24.95 4.6 40.3 42 -7.1 19.2
19:40 1016 30 845 24.95 4.1 39.4 44 -6.9 19.5
19:45 1016 30 845 24.95 3.8 38.9 45 -7 19.4
19:50 1016 30 845 24.95 3.6 38.6 46 -7 19.5
19:55 1016 30 845 24.95 3.5 38.2 45 -7.2 19
20:00 1016 30 845 24.95 3.5 38.3 46 -7.1 19.2
20:05 1016 30 845 24.95 3.4 38.1 46 -7.1 19.2
20:10 1016 30 845 24.95 3 37.3 48 -7.1 19.2
20:15 1016 30 845 24.95 2.7 36.9 48 -7.2 19.1
20:20 1016 30 845 24.95 2.7 36.8 46 -7.8 17.9
20:25 1016 30 845 24.95 3.1 37.5 44 -7.9 17.8
20:30 1016 30 845 24.95 3.3 38 44 -7.7 18.2
20:35 1016 30 845 24.95 3.3 37.9 45 -7.7 18.2
20:40 1016 30 845 24.95 3.4 38.1 45 -7.5 18.5
20:45 1016 30 845 24.95 3.5 38.2 44 -7.6 18.3
20:50 1016 30 845 24.95 3.6 38.5 44 -7.5 18.6
20:55 1016 30 845 24.95 3.5 38.4 45 -7.4 18.6
21:00 1016 30 845 24.95 3.4 38.2 46 -7.2 19
21:05 1016 30 845 24.95 3.3 37.9 46 -7.1 19.1
21:10 1016 30 845 24.95 3.2 37.8 46 -7.3 18.9
21:15 1016 30 845 24.95 3.1 37.6 46 -7.4 18.6
21:20 1016 30 845 24.95 3.3 37.9 46 -7.3 18.9
21:25 1016 30 845 24.95 3.3 38 46 -7.3 18.9
21:30 1016 30 845 24.95 3.3 38 45 -7.6 18.4
21:35 1016 30 845 24.95 3.2 37.7 47 -7.2 19.1
21:40 1016 30 845 24.95 3.1 37.6 46 -7.4 18.7
21:45 1016 30 845 24.95 3.2 37.8 47 -7.2 19.1
21:50 1016 30 845 24.95 3 37.4 46 -7.4 18.6
21:55 1016 30 845 24.95 3 37.3 46 -7.5 18.5
22:00 1016 30 845 24.95 2.8 37.1 46 -7.7 18.2
22:05 1016 30 846 24.98 2.7 36.9 47 -7.5 18.5
22:10 1016 30 846 24.98 2.6 36.6 47 -7.7 18.1
22:15 1016 30 846 24.98 2.6 36.7 46 -7.8 18
22:20 1016 30 846 24.98 2.8 37 45 -8.1 17.5
22:25 1016 30 846 24.98 3 37.4 44 -8.1 17.5
22:30 1016 30 846 24.98 3 37.4 44 -8.1 17.4
22:35 1016 30 846 24.98 2.9 37.3 45 -7.9 17.8
22:40 1016 30 846 24.98 2.7 36.9 45 -8 17.5
22:45 1016 30 846 24.98 2.6 36.7 46 -7.8 18
22:50 1016 30 846 24.98 2.3 36.2 46 -8.1 17.5
22:55 1016 30 845 24.95 2.2 36 47 -7.9 17.8
23:00 1016 30 845 24.95 2 35.7 47 -8.1 17.4
23:05 1016 30 845 24.95 2 35.7 48 -7.8 17.9
23:10 1016 30 845 24.95 1.8 35.3 48 -7.9 17.7
23:15 1016 30 845 24.95 1.9 35.5 49 -7.8 18
23:20 1016 30 845 24.95 1.9 35.4 50 -7.5 18.5
23:25 1016 30 845 24.95 1.7 35.1 51 -7.4 18.7
23:30 1016 30 845 24.95 1.6 34.9 51 -7.5 18.5
23:35 1016 30 845 24.95 1.6 34.9 51 -7.4 18.6
23:40 1016 30 845 24.95 1.6 34.9 51 -7.5 18.4
23:45 1016 30 845 24.95 1.8 35.3 51 -7.3 18.8
23:50 1016 30 845 24.95 1.9 35.4 50 -7.5 18.6
23:55 1016 30 845 24.95 2 35.6 50 -7.4 18.7
24:00 1016 30 845 24.95 2 35.7 50 -7.4 18.8